Galvin, WA

11:01 PM PST on December 17, 2014 (GMT -0800)
Gray Army Air Field | Change Station
CLOSE
Current Station
Airport
Location: Fort Lewis,
Elevation: 302 ft
Nearby Weather Stations

Elev 302 ft 47.08 °N, 122.58 °W | Updated 3 minutes ago

Rain
Rain
43 °F
Feels Like 43 °F
N
2
Wind Variable Wind from SE

Today
High -- | Low -- °F
--% Chance of Precip.
Yesterday
High -- | Low -- °F
Precip. -- in
7:51 AM 4:25 PM
Waning Crescent, 16% visible
Pressure 29.94 in
Visibility 4.0 miles
Clouds Mostly Cloudy 2000 ft
Overcast 2700 ft
Dew Point 43 °F
Humidity 99%
Rainfall 0.11 in
Snow Depth Not available.
UV 0 out of 12
Pollen .40 out of 12
Air Quality Not available.
Flu Activity Not available.
METAR KGRF 180658Z AUTO 13002KT 4SM DZ BR BKN020 OVC027 06/06 A2992 RMK AO2 SLP137 P0001 T00620061 $

More Conditions Fewer Conditions

Pressure 29.94 in
Visibility 4.0 miles
Clouds Mostly Cloudy 2000 ft
Overcast 2700 ft
Dew Point 43 °F
Humidity 99%
Rainfall 0.11 in
Snow Depth Not available.
UV 0 out of 12
Pollen .40 out of 12
Air Quality Not available.
Flu Activity Not available.
METAR KGRF 180658Z AUTO 13002KT 4SM DZ BR BKN020 OVC027 06/06 A2992 RMK AO2 SLP137 P0001 T00620061 $

More Conditions Fewer Conditions

10-Day Weather Forecast

Almanac

Astronomy

Dec. 17, 2014 Rise Set
Actual Time
Civil Twilight
Nautical Twilight
Astronomical Twilight
Moon
Length of Visible Light
Length of Day
Tomorrow will be .
, % of the Moon is Illuminated

Today's Extremes

State Highs State Lows

Community

WunderPhotos

Upload Photos

1,778,897 photos uploaded!

WunderBlogs® & News

Nearby

Air Quality

  Air Quality AQ Index Pollutant
Not available.

Snow Depth

Station Depth Elevation

Earthquake Activity

City Distance Mag. Time & Date
Minimum magnitude displayed is 2.5.

Coastal Water Temperatures

Place Temperature

Nearby Weather Stations